Time;durP1;ratioP1;P1;durP2;ratioP2;P2;SDS_P1;SDS_P2;PMS_P1;PMS_P2;Temp;Humidity;BMP_temperature;BMP_pressure;BME280_temperature;BME280_humidity;BME280_pressure;Samples;Min_cycle;Max_cycle;Signal;HPM_P1;HPM_P2
2022/11/03 00:01:42;;;;;;;12.65;3.55;;;;;;;12.79;88.42;101354.75;6097161;23;20015;-52
2022/11/03 00:04:11;;;;;;;11.48;3.72;;;;;;;12.76;86.86;101361.59;6096270;23;20054;-54
2022/11/03 00:06:40;;;;;;;13.63;3.80;;;;;;;12.80;89.59;101350.94;6096129;23;20018;-53
2022/11/03 00:09:10;;;;;;;14.32;3.83;;;;;;;12.76;87.91;101350.66;6097175;23;20042;-55
2022/11/03 00:11:38;;;;;;;15.45;4.50;;;;;;;12.76;88.64;101345.19;6097720;23;20022;-53
2022/11/03 00:14:08;;;;;;;11.88;3.80;;;;;;;12.74;87.54;101347.34;6095895;23;20026;-50
2022/11/03 00:16:36;;;;;;;14.63;4.10;;;;;;;12.77;88.85;101346.84;6097218;23;20351;-53
2022/11/03 00:19:04;;;;;;;16.95;4.40;;;;;;;12.71;86.06;101336.97;6097379;23;20023;-56
2022/11/03 00:21:32;;;;;;;10.90;3.63;;;;;;;12.73;86.15;101333.97;6073196;23;20014;-56
2022/11/03 00:24:02;;;;;;;13.52;4.43;;;;;;;12.69;85.43;101333.69;6096307;23;20014;-56
2022/11/03 00:26:32;;;;;;;13.73;4.32;;;;;;;12.70;85.44;101335.34;6097022;23;20086;-56
2022/11/03 00:29:07;;;;;;;13.02;3.88;;;;;;;12.71;86.17;101334.22;6095880;23;20474;-54
2022/11/03 00:31:37;;;;;;;14.43;4.40;;;;;;;12.71;85.49;101330.69;6097584;23;20026;-52
2022/11/03 00:34:06;;;;;;;13.88;3.85;;;;;;;12.69;86.00;101325.47;6096725;23;20018;-53
2022/11/03 00:36:38;;;;;;;16.02;3.95;;;;;;;12.69;85.13;101328.22;6097106;23;20033;-55
2022/11/03 00:39:06;;;;;;;14.35;3.70;;;;;;;12.71;85.95;101325.22;6097522;23;20029;-56
2022/11/03 00:41:34;;;;;;;14.02;3.95;;;;;;;12.67;84.55;101313.97;6095841;23;20022;-53
2022/11/03 00:44:02;;;;;;;11.27;3.38;;;;;;;12.67;84.36;101316.72;6095896;23;20027;-55
2022/11/03 00:46:33;;;;;;;11.57;3.80;;;;;;;12.69;85.25;101311.81;6097494;23;20022;-55
2022/11/03 00:49:04;;;;;;;13.20;3.60;;;;;;;12.67;84.24;101297.56;6097431;23;20045;-52
2022/11/03 00:51:33;;;;;;;13.40;3.55;;;;;;;12.66;83.63;101304.16;6098922;23;20018;-55
2022/11/03 00:54:03;;;;;;;14.75;3.55;;;;;;;12.70;84.39;101296.22;6098782;23;20022;-54
2022/11/03 00:56:36;;;;;;;11.55;3.47;;;;;;;12.67;83.95;101292.09;6096933;23;20530;-53
2022/11/03 00:59:05;;;;;;;16.80;3.60;;;;;;;12.63;83.69;101291.03;6095992;23;20480;-56
2022/11/03 01:01:35;;;;;;;12.05;3.55;;;;;;;12.62;83.62;101289.38;6095985;23;20447;-53
2022/11/03 01:06:58;;;;;;;14.50;3.90;;;;;;;12.60;83.12;101269.69;6095763;23;20078;-54
2022/11/03 01:09:30;;;;;;;13.57;3.55;;;;;;;12.60;84.37;101264.22;6095263;23;20443;-54
2022/11/03 01:12:12;;;;;;;13.20;3.53;;;;;;;12.61;84.36;101265.88;6095796;23;20029;-53
2022/11/03 01:14:48;;;;;;;12.88;3.42;;;;;;;12.60;83.94;101274.34;6095780;23;20027;-52
2022/11/03 01:17:17;;;;;;;12.98;3.30;;;;;;;12.61;84.11;101259.59;6095036;23;20026;-53
2022/11/03 01:19:45;;;;;;;11.85;3.35;;;;;;;12.62;84.00;101263.94;6097475;23;20065;-55
2022/11/03 01:22:13;;;;;;;12.55;3.67;;;;;;;12.60;83.38;101266.13;6096131;23;20384;-52
2022/11/03 01:24:42;;;;;;;12.98;3.45;;;;;;;12.62;83.83;101262.03;6097216;23;20097;-52
2022/11/03 01:27:17;;;;;;;13.48;3.40;;;;;;;12.63;83.74;101257.38;6096560;23;20396;-54
2022/11/03 01:29:45;;;;;;;13.48;3.30;;;;;;;12.62;83.82;101245.63;6096338;23;20452;-54
2022/11/03 01:32:12;;;;;;;15.38;3.72;;;;;;;12.61;83.49;101244.00;6096674;23;20022;-54
2022/11/03 01:34:40;;;;;;;14.07;3.42;;;;;;;12.60;84.28;101234.13;6097400;23;20050;-54
2022/11/03 01:37:08;;;;;;;11.13;3.70;;;;;;;12.59;83.78;101240.72;6096482;23;20019;-53
2022/11/03 01:39:35;;;;;;;12.23;3.70;;;;;;;12.60;84.45;101231.41;6094833;23;20022;-55
2022/11/03 01:42:03;;;;;;;10.02;3.00;;;;;;;12.60;84.73;101231.41;6096201;23;20030;-50
2022/11/03 01:44:38;;;;;;;14.60;3.50;;;;;;;12.63;84.40;101225.41;6090386;23;20033;-53
2022/11/03 01:47:14;;;;;;;11.30;3.50;;;;;;;12.63;84.72;101230.88;6070811;23;20026;-54
2022/11/03 01:49:55;;;;;;;11.88;3.45;;;;;;;12.63;84.17;101219.94;6095525;23;20078;-54
2022/11/03 01:52:32;;;;;;;12.77;3.40;;;;;;;12.65;85.19;101217.78;6095389;23;20022;-56
2022/11/03 01:55:08;;;;;;;12.90;3.03;;;;;;;12.66;84.46;101213.13;6095664;23;20089;-55
2022/11/03 01:57:40;;;;;;;11.50;3.28;;;;;;;12.68;85.43;101211.75;6095592;23;20395;-52
2022/11/03 02:00:08;;;;;;;14.07;3.28;;;;;;;12.64;85.50;101202.44;6095175;23;20014;-55
2022/11/03 02:02:40;;;;;;;13.82;3.67;;;;;;;12.62;85.56;101195.59;6095293;23;20029;-52
2022/11/03 02:05:09;;;;;;;14.82;3.92;;;;;;;12.60;84.89;101198.59;6096604;23;20518;-53
2022/11/03 02:07:55;;;;;;;10.07;3.20;;;;;;;12.60;85.84;101203.25;6095585;23;20385;-53
2022/11/03 02:10:23;;;;;;;;;;;;;;;12.62;87.76;101201.88;6095534;23;20355;-53
2022/11/03 02:12:51;;;;;;;9.55;3.17;;;;;;;12.62;86.83;101201.06;6095067;23;19936;-55
2022/11/03 02:15:20;;;;;;;13.38;3.75;;;;;;;12.62;86.03;101190.13;6095271;23;20073;-53
2022/11/03 02:17:50;;;;;;;11.73;3.60;;;;;;;12.64;85.95;101188.78;6096626;23;20045;-53
2022/11/03 02:20:24;;;;;;;15.50;3.35;;;;;;;12.63;85.74;101187.16;6071580;23;20073;-53
2022/11/03 02:22:58;;;;;;;9.48;3.15;;;;;;;12.63;85.85;101180.84;6094921;23;20023;-53
2022/11/03 02:25:41;;;;;;;14.57;3.53;;;;;;;12.62;86.27;101180.03;6093878;23;20018;-53
2022/11/03 02:28:09;;;;;;;10.30;3.28;;;;;;;12.62;86.23;101173.75;6094339;23;20018;-54
2022/11/03 02:30:49;;;;;;;11.13;3.53;;;;;;;12.62;86.14;101177.28;6095121;23;20078;-54
2022/11/03 02:33:40;;;;;;;12.60;3.55;;;;;;;12.60;86.05;101171.28;6096055;23;20069;-52
2022/11/03 02:36:22;;;;;;;11.13;3.33;;;;;;;12.61;85.99;101161.19;6057025;23;20022;-51
2022/11/03 02:39:02;;;;;;;13.45;3.28;;;;;;;12.61;86.10;101156.53;6095027;23;20044;-55
2022/11/03 02:41:33;;;;;;;11.68;3.30;;;;;;;12.62;86.33;101160.06;6096853;23;20065;-54
2022/11/03 02:44:02;;;;;;;9.57;3.17;;;;;;;12.64;87.07;101150.50;6096561;23;20058;-55
2022/11/03 02:46:30;;;;;;;13.45;3.88;;;;;;;12.66;86.93;101151.06;6095242;23;20448;-55
2022/11/03 02:48:58;;;;;;;11.38;3.30;;;;;;;12.66;86.71;101142.03;6095684;23;20022;-51
2022/11/03 02:51:26;;;;;;;14.05;3.70;;;;;;;12.70;87.07;101132.16;6094813;23;20022;-56
2022/11/03 02:54:25;;;;;;;10.55;3.40;;;;;;;12.72;89.09;101135.44;6096650;23;20022;-57
2022/11/03 02:56:56;;;;;;;14.13;3.63;;;;;;;12.70;87.21;101130.28;6095024;23;20514;-55
2022/11/03 02:59:26;;;;;;;12.95;3.40;;;;;;;12.71;88.27;101125.63;6096250;23;20018;-55
2022/11/03 03:02:02;;;;;;;10.85;3.30;;;;;;;12.69;88.09;101120.41;6094673;23;20022;-56
2022/11/03 03:04:35;;;;;;;15.88;3.72;;;;;;;12.69;88.22;101114.94;6095365;23;20023;-57
2022/11/03 03:07:18;;;;;;;10.10;3.13;;;;;;;12.70;88.58;101111.16;6096993;23;20098;-56
2022/11/03 03:10:05;;;;;;;8.40;2.97;;;;;;;12.72;88.63;101113.59;6095362;23;20026;-55
2022/11/03 03:12:34;;;;;;;8.25;2.90;;;;;;;12.76;91.00;101109.22;6095516;23;20355;-53
2022/11/03 03:15:04;;;;;;;13.63;3.50;;;;;;;12.75;90.54;101108.41;6095078;23;20022;-53
2022/11/03 03:17:41;;;;;;;12.25;3.45;;;;;;;12.76;90.47;101099.09;6071907;23;20023;-52
2022/11/03 03:20:35;;;;;;;10.75;3.47;;;;;;;12.76;89.46;101087.34;6096839;23;20037;-55
2022/11/03 03:23:15;;;;;;;10.15;3.28;;;;;;;12.74;90.06;101090.34;6092844;23;20026;-55
2022/11/03 03:26:06;;;;;;;8.32;2.83;;;;;;;12.73;90.02;101083.25;6096434;23;20029;-51
2022/11/03 03:28:55;;;;;;;11.43;3.20;;;;;;;12.71;89.40;101085.44;6095688;23;20093;-52
2022/11/03 03:31:25;;;;;;;10.27;2.65;;;;;;;12.70;90.09;101081.06;6096940;23;20347;-53
2022/11/03 03:33:53;;;;;;;13.15;3.83;;;;;;;12.70;89.36;101083.81;6097015;23;20359;-53
2022/11/03 03:36:32;;;;;;;13.25;3.33;;;;;;;12.70;90.06;101072.03;6075482;23;20046;-55
2022/11/03 03:39:02;;;;;;;12.50;3.55;;;;;;;12.73;91.06;101071.50;6097575;23;20022;-53
2022/11/03 03:41:31;;;;;;;15.70;3.85;;;;;;;12.73;89.59;101063.28;6096206;23;20026;-51
2022/11/03 03:44:04;;;;;;;13.57;3.30;;;;;;;12.67;89.34;101067.94;6096347;23;20022;-50
2022/11/03 03:46:36;;;;;;;11.32;3.55;;;;;;;12.67;90.53;101073.41;6096897;23;20022;-52
2022/11/03 03:49:04;;;;;;;15.60;3.80;;;;;;;12.67;89.95;101061.66;6096513;23;20022;-49
2022/11/03 03:51:31;;;;;;;9.15;3.00;;;;;;;12.71;91.06;101065.47;6096618;23;20019;-49
2022/11/03 03:53:59;;;;;;;9.18;2.95;;;;;;;12.72;90.94;101058.91;6098070;23;20014;-49
2022/11/03 03:56:35;;;;;;;11.55;3.15;;;;;;;12.76;91.76;101052.59;6098014;23;20023;-52
2022/11/03 03:59:02;;;;;;;10.75;3.08;;;;;;;12.73;90.96;101055.91;6096796;23;20395;-52
2022/11/03 04:01:30;;;;;;;9.43;3.08;;;;;;;12.72;90.58;101043.34;6096662;23;20073;-51
2022/11/03 04:03:58;;;;;;;10.23;3.08;;;;;;;12.73;90.50;101036.75;6096110;23;20022;-51
2022/11/03 04:06:25;;;;;;;13.02;3.38;;;;;;;12.72;90.03;101037.88;6096560;23;20073;-49
2022/11/03 04:08:53;;;;;;;12.40;3.25;;;;;;;12.72;90.22;101035.13;6096405;23;20018;-51
2022/11/03 04:22:30;;;;;;;9.55;2.85;;;;;;;12.68;90.63;101031.31;6096433;23;19921;-52
2022/11/03 04:24:58;;;;;;;13.65;3.20;;;;;;;12.68;90.62;101035.97;6098114;23;20022;-53
2022/11/03 04:27:34;;;;;;;10.82;3.53;;;;;;;12.70;90.55;101031.84;6096496;23;20506;-51
2022/11/03 04:30:18;;;;;;;12.20;3.90;;;;;;;12.67;90.56;101029.66;6096639;23;20022;-53
2022/11/03 04:32:48;;;;;;;14.90;3.45;;;;;;;12.67;90.51;101024.19;6096069;23;20018;-54
2022/11/03 04:35:18;;;;;;;12.13;3.20;;;;;;;12.65;90.34;101020.94;6072640;23;20022;-54
2022/11/03 04:37:59;;;;;;;12.00;3.78;;;;;;;12.64;90.72;101018.47;6095877;23;20041;-53
2022/11/03 04:40:27;;;;;;;11.55;3.13;;;;;;;12.64;91.35;101019.28;6095766;23;20022;-53
2022/11/03 04:42:54;;;;;;;11.05;3.05;;;;;;;12.64;90.95;101008.34;6097131;23;20443;-52
2022/11/03 04:45:30;;;;;;;11.52;3.30;;;;;;;12.64;90.42;101013.81;6097104;23;20022;-55
2022/11/03 04:48:00;;;;;;;14.68;3.30;;;;;;;12.62;91.26;101010.53;6096229;23;20085;-51
2022/11/03 04:50:28;;;;;;;15.07;3.80;;;;;;;12.61;91.39;101003.44;6095984;23;20070;-52
2022/11/03 04:52:57;;;;;;;11.30;3.38;;;;;;;12.61;91.01;100992.50;6097230;23;20084;-52
2022/11/03 04:55:25;;;;;;;9.23;3.30;;;;;;;12.61;91.71;100994.44;6097407;23;20046;-51
2022/11/03 04:58:05;;;;;;;11.23;3.35;;;;;;;12.61;92.02;100992.50;6097259;23;20077;-49
2022/11/03 05:00:33;;;;;;;12.60;3.75;;;;;;;12.62;91.79;100988.66;6095916;23;20073;-53
2022/11/03 05:03:00;;;;;;;10.95;3.15;;;;;;;12.62;91.48;100988.66;6096663;23;20069;-54
2022/11/03 05:05:28;;;;;;;8.77;3.20;;;;;;;12.64;92.89;100982.94;6096911;23;20066;-52
2022/11/03 05:07:57;;;;;;;8.95;2.97;;;;;;;12.72;93.36;100977.72;6097390;23;20022;-52
2022/11/03 05:10:27;;;;;;;8.98;2.97;;;;;;;12.83;97.34;100972.22;6096900;23;20019;-50
2022/11/03 05:12:55;;;;;;;9.98;3.15;;;;;;;12.81;94.65;100979.88;6097308;23;20456;-57
2022/11/03 05:15:34;;;;;;;10.25;3.00;;;;;;;12.79;95.09;100964.56;6097216;23;20074;-52
2022/11/03 05:18:21;;;;;;;8.85;3.30;;;;;;;12.75;94.94;100965.41;6097125;23;20084;-52
2022/11/03 05:21:11;;;;;;;11.65;3.90;;;;;;;12.75;95.52;100960.75;6095842;23;20474;-52
2022/11/03 05:23:41;;;;;;;11.20;2.88;;;;;;;12.79;96.14;100961.00;6095582;23;20081;-53
2022/11/03 05:26:16;;;;;;;8.55;2.78;;;;;;;12.72;94.46;100964.06;6071264;23;20385;-53
2022/11/03 05:28:54;;;;;;;11.57;3.15;;;;;;;12.70;95.15;100957.19;6071875;23;20018;-51
2022/11/03 05:31:25;;;;;;;13.60;3.45;;;;;;;12.67;95.10;100944.91;6095051;23;20030;-53
2022/11/03 05:34:17;;;;;;;15.05;3.55;;;;;;;12.67;95.40;100936.72;6096928;23;20041;-52
2022/11/03 05:36:44;;;;;;;12.30;3.70;;;;;;;12.63;94.60;100935.66;6085263;23;20375;-50
2022/11/03 05:39:29;;;;;;;12.75;3.33;;;;;;;12.68;96.45;100935.63;6094996;23;20022;-53
2022/11/03 05:42:00;;;;;;;13.75;3.60;;;;;;;12.64;95.53;100931.81;6094849;23;20073;-53
2022/11/03 05:44:36;;;;;;;10.77;3.20;;;;;;;12.60;95.70;100930.72;6091504;23;20026;-51
2022/11/03 05:47:13;;;;;;;15.18;3.85;;;;;;;12.58;95.35;100924.75;6091996;23;20077;-54
2022/11/03 05:49:40;;;;;;;12.30;3.35;;;;;;;12.56;95.78;100921.47;6092215;23;20026;-56
2022/11/03 05:52:15;;;;;;;12.07;3.50;;;;;;;12.56;95.82;100924.19;6092781;23;20526;-52
2022/11/03 05:54:43;;;;;;;9.27;3.13;;;;;;;12.54;96.01;100920.91;6091667;23;20737;-54
2022/11/03 05:57:12;;;;;;;14.20;3.42;;;;;;;12.51;96.03;100911.34;6093439;23;20022;-52
2022/11/03 05:59:40;;;;;;;15.55;4.15;;;;;;;12.51;96.61;100910.56;6091493;23;20022;-53
2022/11/03 06:02:20;;;;;;;14.90;3.80;;;;;;;12.51;96.03;100910.56;6090746;23;20459;-51
2022/11/03 06:04:48;;;;;;;13.20;3.22;;;;;;;12.49;96.47;100905.34;6092775;23;20022;-51
2022/11/03 06:07:23;;;;;;;12.15;3.28;;;;;;;12.50;96.31;100904.25;6092593;23;20030;-52
2022/11/03 06:09:54;;;;;;;14.88;3.67;;;;;;;12.49;97.04;100902.63;6091328;23;20046;-50
2022/11/03 06:12:23;;;;;;;14.45;3.75;;;;;;;12.49;96.24;100896.34;6092764;23;20125;-52
2022/11/03 06:14:51;;;;;;;11.63;3.45;;;;;;;12.48;97.03;100887.34;6067134;23;20026;-52
2022/11/03 06:17:24;;;;;;;13.82;3.63;;;;;;;12.47;96.80;100887.59;6092482;23;20022;-52
2022/11/03 06:19:58;;;;;;;13.60;4.00;;;;;;;12.46;96.91;100880.47;6092705;23;20026;-52
2022/11/03 06:22:35;;;;;;;13.05;3.90;;;;;;;12.44;96.85;100882.69;6092252;23;20070;-51
2022/11/03 06:25:24;;;;;;;12.90;3.28;;;;;;;12.45;97.36;100889.78;6092523;23;20086;-52
2022/11/03 06:27:53;;;;;;;11.98;3.50;;;;;;;12.44;96.69;100894.44;6092394;23;20034;-53
2022/11/03 06:30:25;;;;;;;14.77;4.57;;;;;;;12.40;96.85;100884.34;6090980;23;20022;-53
2022/11/03 06:32:57;;;;;;;14.23;3.80;;;;;;;12.38;96.78;100887.34;6092504;23;20022;-51
2022/11/03 06:35:24;;;;;;;12.30;3.83;;;;;;;12.39;97.09;100886.25;6092395;23;20028;-54
2022/11/03 06:37:52;;;;;;;15.98;4.43;;;;;;;12.36;96.93;100882.19;6092242;23;20355;-55
2022/11/03 06:40:29;;;;;;;14.98;3.45;;;;;;;12.41;97.82;100877.78;6092494;23;20185;-55
2022/11/03 06:42:57;;;;;;;15.13;4.00;;;;;;;12.36;97.59;100871.25;6090933;23;20022;-53
2022/11/03 06:45:25;;;;;;;17.77;4.25;;;;;;;12.34;97.38;100867.97;6089786;23;20069;-51
2022/11/03 06:47:53;;;;;;;13.98;3.67;;;;;;;12.33;98.76;100863.59;6092553;23;20049;-53
2022/11/03 06:50:28;;;;;;;12.32;3.92;;;;;;;12.30;98.30;100866.88;6092761;23;20461;-54
2022/11/03 06:52:57;;;;;;;15.90;4.00;;;;;;;12.28;98.35;100857.34;6092676;23;20030;-58
2022/11/03 06:55:30;;;;;;;10.93;3.75;;;;;;;12.23;98.85;100863.63;6092141;23;20030;-53
2022/11/03 06:58:26;;;;;;;11.75;4.03;;;;;;;12.18;99.51;100855.47;6090434;23;20026;-53
2022/11/03 07:00:56;;;;;;;17.65;4.78;;;;;;;12.20;99.29;100860.66;6082237;23;20034;-50
2022/11/03 07:03:34;;;;;;;15.40;4.00;;;;;;;12.24;99.31;100857.09;6092766;23;20026;-54
2022/11/03 07:06:14;;;;;;;11.27;3.53;;;;;;;12.30;99.02;100844.22;6092549;23;20098;-53
2022/11/03 07:08:53;;;;;;;12.93;4.07;;;;;;;12.30;98.52;100853.22;6092563;23;20208;-54
2022/11/03 07:11:39;;;;;;;15.77;4.45;;;;;;;12.31;99.11;100854.03;6092887;23;20384;-54
2022/11/03 07:14:22;;;;;;;14.85;4.20;;;;;;;12.32;98.92;100848.31;6095069;23;20404;-57
2022/11/03 07:16:52;;;;;;;13.15;3.65;;;;;;;12.32;98.52;100853.75;6093890;23;20069;-55
2022/11/03 07:19:22;;;;;;;14.63;4.00;;;;;;;12.33;99.06;100849.94;6092937;23;20448;-50
2022/11/03 07:21:51;;;;;;;16.38;3.92;;;;;;;12.34;98.82;100853.50;6092813;23;20074;-54
2022/11/03 07:24:28;;;;;;;12.07;3.60;;;;;;;12.33;98.62;100844.47;6094232;23;20026;-56
2022/11/03 07:27:14;;;;;;;12.63;3.70;;;;;;;12.33;98.56;100839.00;6095558;23;20019;-55
2022/11/03 07:29:42;;;;;;;12.85;3.55;;;;;;;12.36;98.44;100840.34;6097681;23;20490;-54
2022/11/03 07:32:21;;;;;;;14.50;3.72;;;;;;;12.36;98.71;100835.72;6097209;23;20025;-53
2022/11/03 07:34:51;;;;;;;12.02;3.45;;;;;;;12.36;98.62;100833.00;6072090;23;20026;-55
2022/11/03 07:37:24;;;;;;;12.68;3.47;;;;;;;12.36;98.59;100833.00;6096147;23;20026;-55
2022/11/03 07:39:52;;;;;;;12.52;3.50;;;;;;;12.36;98.46;100827.53;6096524;23;20506;-54
2022/11/03 07:42:21;;;;;;;9.88;3.58;;;;;;;12.39;98.72;100822.56;6097717;23;20025;-53
2022/11/03 07:44:52;;;;;;;11.25;3.80;;;;;;;12.39;98.53;100817.94;6072774;23;20026;-52
2022/11/03 07:47:24;;;;;;;18.08;4.90;;;;;;;12.43;98.01;100815.47;6095983;23;20022;-53
2022/11/03 07:49:52;;;;;;;14.20;3.92;;;;;;;12.46;97.60;100814.91;6097096;23;20010;-53
2022/11/03 07:52:24;;;;;;;16.55;4.72;;;;;;;12.50;97.74;100816.78;6098102;23;20022;-52
2022/11/03 07:54:54;;;;;;;16.92;4.95;;;;;;;12.51;97.81;100812.16;6096529;23;20030;-52
2022/11/03 07:57:24;;;;;;;10.90;3.50;;;;;;;12.51;97.00;100815.72;6098475;23;20074;-53
2022/11/03 08:00:13;;;;;;;14.18;3.80;;;;;;;12.51;96.88;100817.63;6096257;23;20450;-54
2022/11/03 08:02:49;;;;;;;12.05;3.63;;;;;;;12.50;97.14;100822.25;6072487;23;20451;-54
2022/11/03 08:05:17;;;;;;;14.15;4.20;;;;;;;12.50;97.32;100822.25;6097279;23;20134;-55
2022/11/03 08:07:45;;;;;;;16.55;3.92;;;;;;;12.51;96.77;100817.63;6097799;23;20018;-53
2022/11/03 08:10:13;;;;;;;18.27;4.10;;;;;;;12.50;96.99;100818.72;6097463;23;20010;-50
2022/11/03 08:12:41;;;;;;;12.48;3.47;;;;;;;12.49;97.38;100817.09;6097519;23;20018;-57
2022/11/03 08:15:09;;;;;;;11.02;3.50;;;;;;;12.49;97.32;100819.81;6097331;23;20074;-54
2022/11/03 08:17:36;;;;;;;14.32;3.78;;;;;;;12.50;97.05;100815.97;6097336;23;20022;-54
2022/11/03 08:20:04;;;;;;;12.93;4.22;;;;;;;12.53;97.26;100804.47;6097588;23;20082;-52
2022/11/03 08:22:32;;;;;;;12.75;3.65;;;;;;;12.54;96.85;100800.66;6097141;23;20018;-52
2022/11/03 08:24:59;;;;;;;13.27;3.75;;;;;;;12.56;97.06;100795.72;6097078;23;20015;-51
2022/11/03 08:27:27;;;;;;;13.38;3.92;;;;;;;12.57;96.02;100786.41;6097150;23;20022;-51
2022/11/03 08:29:54;;;;;;;14.15;3.75;;;;;;;12.62;96.67;100780.09;6097236;23;20344;-54
2022/11/03 08:32:22;;;;;;;11.25;4.00;;;;;;;12.66;95.55;100771.06;6096323;23;20078;-54
2022/11/03 08:34:50;;;;;;;12.73;4.32;;;;;;;12.64;95.45;100762.31;6097194;23;20151;-53
2022/11/03 08:37:17;;;;;;;12.85;3.55;;;;;;;12.65;95.20;100757.66;6097370;23;20018;-54
2022/11/03 08:39:45;;;;;;;15.02;4.30;;;;;;;12.64;94.98;100754.13;6097952;23;20045;-55
2022/11/03 08:42:12;;;;;;;14.60;3.85;;;;;;;12.68;95.79;100743.47;6097245;23;20395;-53
2022/11/03 08:44:40;;;;;;;13.57;3.63;;;;;;;12.71;95.21;100740.97;6096333;23;20133;-53
2022/11/03 08:47:07;;;;;;;15.35;4.38;;;;;;;12.71;95.28;100732.75;6097138;23;20392;-52
2022/11/03 08:49:35;;;;;;;14.00;3.85;;;;;;;12.74;95.11;100723.97;6097162;23;20019;-53
2022/11/03 08:52:03;;;;;;;13.63;3.67;;;;;;;12.75;95.05;100724.81;6096058;23;20023;-53
2022/11/03 08:54:30;;;;;;;13.38;3.75;;;;;;;12.75;94.77;100714.69;6095483;23;20045;-52
2022/11/03 08:57:01;;;;;;;14.27;3.58;;;;;;;12.76;94.94;100705.38;6097321;23;20073;-49
2022/11/03 08:59:28;;;;;;;13.52;3.53;;;;;;;12.76;94.43;100694.44;6097046;23;20073;-49
2022/11/03 09:02:02;;;;;;;13.15;3.95;;;;;;;12.77;94.68;100682.41;6096480;23;20014;-53
2022/11/03 09:04:30;;;;;;;12.85;3.92;;;;;;;12.79;94.73;100682.94;6097079;23;20407;-52
2022/11/03 09:06:58;;;;;;;17.33;3.88;;;;;;;12.83;94.22;100677.72;6095333;23;20026;-53
2022/11/03 09:09:43;;;;;;;18.60;4.32;;;;;;;12.84;93.67;100673.06;6096859;23;20022;-52
2022/11/03 09:12:31;;;;;;;14.27;4.20;;;;;;;12.83;94.31;100665.97;6096755;23;20025;-53
2022/11/03 09:14:58;;;;;;;12.43;3.40;;;;;;;12.85;93.46;100658.28;6096886;23;20023;-52
2022/11/03 09:17:26;;;;;;;11.95;3.55;;;;;;;12.88;94.04;100653.06;6096733;23;20023;-54
2022/11/03 09:19:54;;;;;;;9.20;3.20;;;;;;;12.90;93.82;100641.84;6097023;23;20028;-53
2022/11/03 09:22:22;;;;;;;14.35;4.22;;;;;;;12.92;93.40;100617.75;6096912;23;20024;-53
2022/11/03 09:24:49;;;;;;;12.65;3.90;;;;;;;12.94;92.86;100635.50;6095024;23;20044;-52
2022/11/03 09:27:17;;;;;;;12.73;3.80;;;;;;;12.95;93.18;100617.16;6090506;23;20633;-51
2022/11/03 09:29:45;;;;;;;12.88;3.78;;;;;;;12.97;92.91;100623.16;6092712;23;20053;-55
2022/11/03 09:32:33;;;;;;;13.35;3.50;;;;;;;12.99;92.69;100613.56;6092799;23;20022;-56
2022/11/03 09:35:01;;;;;;;11.75;3.50;;;;;;;13.00;92.83;100596.03;6090820;23;20033;-56
2022/11/03 09:37:35;;;;;;;12.65;3.60;;;;;;;13.02;92.21;100590.28;6093715;23;20026;-54
2022/11/03 09:40:04;;;;;;;10.82;3.55;;;;;;;13.05;91.97;100580.69;6092762;23;20388;-55
2022/11/03 09:42:33;;;;;;;15.52;4.03;;;;;;;13.06;91.93;100574.94;6094432;23;20027;-57
2022/11/03 09:45:01;;;;;;;13.32;3.90;;;;;;;13.06;92.41;100569.47;6097633;23;20030;-53
2022/11/03 09:47:33;;;;;;;13.68;3.75;;;;;;;13.08;91.65;100574.63;6097156;23;20077;-53
2022/11/03 09:50:01;;;;;;;12.82;3.80;;;;;;;13.08;91.69;100575.44;6095073;23;20478;-51
2022/11/03 09:52:31;;;;;;;14.85;3.47;;;;;;;13.10;91.74;100567.75;6095656;23;20025;-51
2022/11/03 09:55:03;;;;;;;12.68;3.45;;;;;;;13.10;91.94;100562.28;6095638;23;20069;-52
2022/11/03 09:57:31;;;;;;;13.50;3.95;;;;;;;13.10;91.80;100562.28;6096685;23;20081;-51
2022/11/03 09:59:58;;;;;;;16.98;3.90;;;;;;;13.11;91.28;100557.66;6096542;23;20026;-53
2022/11/03 10:02:28;;;;;;;12.43;3.60;;;;;;;13.11;91.36;100561.22;6095087;23;20014;-51
2022/11/03 10:04:58;;;;;;;12.88;3.70;;;;;;;13.12;91.10;100553.81;6096905;23;20053;-55
2022/11/03 10:07:27;;;;;;;16.50;4.55;;;;;;;13.14;90.71;100549.66;6096672;23;20101;-54
2022/11/03 10:09:57;;;;;;;13.98;3.47;;;;;;;13.14;91.36;100535.19;6095327;23;20042;-52
2022/11/03 10:12:26;;;;;;;15.23;4.18;;;;;;;13.13;90.93;100534.38;6095020;23;20125;-53
2022/11/03 10:14:54;;;;;;;9.98;3.53;;;;;;;13.13;90.77;100533.53;6096224;23;20093;-54
2022/11/03 10:17:30;;;;;;;16.95;3.83;;;;;;;13.14;90.58;100522.31;6095344;23;20392;-55
2022/11/03 10:19:58;;;;;;;12.68;3.90;;;;;;;13.14;90.50;100525.06;6095347;23;20023;-50
2022/11/03 10:22:25;;;;;;;15.93;4.10;;;;;;;13.18;89.83;100508.84;6096373;23;20019;-55
2022/11/03 10:25:30;;;;;;;13.57;3.63;;;;;;;13.20;89.50;100515.69;6095036;23;20022;-56
2022/11/03 10:28:22;;;;;;;11.23;3.38;;;;;;;13.19;88.51;100503.09;6096340;23;20030;-55
2022/11/03 10:30:56;;;;;;;13.65;3.30;;;;;;;13.19;88.41;100500.38;6081695;23;20070;-55
2022/11/03 10:33:50;;;;;;;10.40;3.30;;;;;;;13.19;88.92;100500.38;6096397;23;20335;-55
2022/11/03 10:36:18;;;;;;;14.40;3.70;;;;;;;13.19;88.66;100481.22;6096926;23;20044;-54
2022/11/03 10:38:48;;;;;;;12.18;4.00;;;;;;;13.20;88.38;100479.28;6097898;23;20022;-49
2022/11/03 10:41:16;;;;;;;12.35;3.50;;;;;;;13.20;88.31;100491.06;6097886;23;20371;-53
2022/11/03 10:43:58;;;;;;;12.48;3.67;;;;;;;13.22;88.34;100472.41;6098687;23;20026;-54
2022/11/03 10:46:26;;;;;;;10.68;3.45;;;;;;;13.22;88.44;100466.94;6096828;23;20054;-53
2022/11/03 10:49:17;;;;;;;11.75;3.55;;;;;;;13.24;87.73;100455.72;6097465;23;20077;-51
2022/11/03 10:51:47;;;;;;;14.60;3.50;;;;;;;13.27;88.19;100455.16;6097367;23;20033;-53
2022/11/03 10:54:17;;;;;;;7.47;3.10;;;;;;;13.31;87.59;100452.66;6098195;23;20109;-54
2022/11/03 10:56:47;;;;;;;13.23;3.63;;;;;;;13.33;87.12;100447.69;6098589;23;20028;-53
2022/11/03 10:59:19;;;;;;;10.45;3.30;;;;;;;13.37;86.77;100454.19;6098145;23;20066;-54
2022/11/03 11:01:47;;;;;;;11.07;3.58;;;;;;;13.39;86.58;100457.44;6095783;23;20440;-53
2022/11/03 11:04:17;;;;;;;15.10;4.65;;;;;;;13.48;88.65;100452.94;6096020;23;20029;-52
2022/11/03 11:06:45;;;;;;;10.77;3.08;;;;;;;13.50;86.64;100447.97;6096512;23;20026;-51
2022/11/03 11:09:16;;;;;;;15.07;3.78;;;;;;;13.54;88.04;100446.28;6096735;23;20041;-52
2022/11/03 11:12:25;;;;;;;12.98;3.40;;;;;;;13.54;85.88;100435.34;6096466;23;20081;-54
2022/11/03 11:15:01;;;;;;;11.40;3.55;;;;;;;13.53;85.55;100420.00;6093304;23;20026;-50
2022/11/03 11:17:42;;;;;;;8.15;2.83;;;;;;;13.56;84.99;100422.16;6071958;23;20095;-56
2022/11/03 11:20:20;;;;;;;12.90;3.38;;;;;;;13.57;84.25;100421.06;6098151;23;20365;-53
2022/11/03 11:22:49;;;;;;;7.35;2.72;;;;;;;13.59;84.33;100421.56;6097971;23;20034;-53
2022/11/03 11:25:18;;;;;;;10.85;3.45;;;;;;;13.61;83.81;100413.88;6096761;23;20015;-55
2022/11/03 11:27:46;;;;;;;9.52;3.13;;;;;;;13.62;83.54;100415.50;6097953;23;20074;-55
2022/11/03 11:30:20;;;;;;;9.88;3.28;;;;;;;13.64;83.49;100407.78;6098112;23;20022;-54
2022/11/03 11:32:59;;;;;;;9.40;3.33;;;;;;;13.69;83.38;100403.34;6097387;23;20459;-48
2022/11/03 11:35:26;;;;;;;8.20;3.10;;;;;;;13.75;82.86;100402.13;6097810;23;20490;-54
2022/11/03 11:37:54;;;;;;;16.35;4.80;;;;;;;13.83;86.17;100382.31;6098222;23;20455;-50
2022/11/03 11:40:25;;;;;;;12.43;3.80;;;;;;;13.89;83.73;100381.09;6097705;23;20022;-54
2022/11/03 11:43:12;;;;;;;8.73;3.15;;;;;;;13.83;81.93;100363.94;6097622;23;20064;-57
2022/11/03 11:46:16;;;;;;;15.63;4.90;;;;;;;13.95;86.53;100363.47;6098096;23;20018;-52
2022/11/03 11:48:44;;;;;;;11.82;3.40;;;;;;;14.01;82.27;100351.28;6097551;23;20023;-55
2022/11/03 11:51:12;;;;;;;12.07;3.80;;;;;;;13.93;81.11;100343.78;6097697;23;20070;-54
2022/11/03 11:53:41;;;;;;;13.27;4.50;;;;;;;14.01;84.41;100331.31;6095700;23;20026;-56
2022/11/03 11:56:11;;;;;;;12.10;3.40;;;;;;;13.97;82.27;100325.59;6097703;23;20022;-52
2022/11/03 11:58:42;;;;;;;11.45;3.85;;;;;;;13.99;82.62;100320.63;6096477;23;20018;-50